Estació meteorològica de Mataró (Maresme, Maresme)

Consulta les dades en temps real de l'estació meteorològica de Mataró





Hora UTC 18:05
Temperatura 25.3 ºC
Sòl 15 cm 25.4 ºC
Humitat 75.6 %
Pressió 1018.3 hPa
Pluja 0.0 mm
Velocitat vent 4.8 km/h
Direcció vent SSE
Radiació solar 21.4 W/m²

Webcam

Dades diàries 2026-08-31



Hora UTC (hivern +1h; estiu +2h)
Temperatura (ºC) Humitat (%) Pressió (hPa) Velocitat vent (km/h) Precipitació (mm) Radiació solar (W/m²)
Hora UTC Aire Sòl 15 cm Humitat Pressió Vel. Dir. Vel. Max Dir. Intent. màx 5 min. Rad. Sol.
00:05 23.9 22.6 58.8 1016.4 4.9 NNW 4.9 NNW 0.0 0.1
00:10 23.8 22.3 59.9 1016.4 3.9 NW 6.7 NNW 0.0 0.1
00:15 23.7 22.0 60.7 1016.4 3.2 NW 4.6 N 0.0 0.1
00:20 23.5 21.6 61.6 1016.5 6.0 NW 9.9 NW 0.0 0.1
00:25 23.3 21.4 63.5 1016.5 9.3 NNW 11.6 NW 0.0 0.1
00:30 23.4 21.5 63.8 1016.5 10.3 NW 13.8 NNW 0.0 0.1
00:35 23.5 21.7 63.9 1016.5 8.5 NW 12.4 NNW 0.0 0.1
00:40 23.5 21.8 64.1 1016.5 4.0 WNW 7.4 N 0.0 0.1
00:45 23.4 21.7 64.1 1016.6 4.4 NNW 6.4 NNW 0.0 0.1
00:50 23.1 21.6 62.7 1016.7 4.0 NW 6.0 NW 0.0 0.1
00:55 23.0 21.3 63.1 1016.6 0.7 NNW 2.5 NNW 0.0 0.1
01:00 22.8 21.0 61.3 1016.6 2.0 NNW 3.5 NNW 0.0 0.1
01:05 23.0 20.9 58.9 1016.5 0.9 NW 3.2 NW 0.0 0.1
01:10 23.0 20.8 58.4 1016.6 2.9 NNW 3.9 N 0.0 0.1
01:15 23.0 20.7 57.7 1016.6 2.9 NNW 3.9 N 0.0 0.1
01:20 23.1 20.7 58.1 1016.6 0.7 NW 2.8 WNW 0.0 0.1
01:25 23.2 20.6 58.3 1016.6 0.1 NW 1.8 NW 0.0 0.1
01:30 23.1 20.3 58.7 1016.6 1.8 NW 3.2 WNW 0.0 0.1
01:35 22.8 20.0 59.2 1016.6 3.0 NW 4.9 NNW 0.0 0.1
01:40 22.8 20.0 59.0 1016.7 3.3 NW 5.6 N 0.0 0.1
01:45 22.8 20.2 59.1 1016.7 2.6 NW 4.6 NW 0.0 0.1
01:50 22.9 20.3 59.0 1016.7 3.8 NNW 7.4 NW 0.0 0.1
01:55 23.0 20.5 59.1 1016.7 3.2 NNW 6.0 NNW 0.0 0.1
02:00 23.1 20.8 58.8 1016.7 3.6 N 7.4 N 0.0 0.1
02:05 22.9 20.9 59.6 1016.7 2.4 NNW 4.6 NNW 0.0 0.1
02:10 22.4 20.7 61.2 1016.7 0.2 NNW 2.1 NNW 0.0 0.1
02:15 22.4 20.5 61.5 1016.7 0.6 NE 2.1 NE 0.0 0.1
02:20 22.3 20.1 61.5 1016.7 0.6 NNW 4.2 N 0.0 0.1
02:25 22.1 19.9 61.1 1016.7 4.1 NNW 5.6 NNW 0.0 0.1
02:30 22.2 20.1 60.7 1016.7 4.4 NNW 5.6 NNW 0.0 0.1
02:35 22.2 20.2 60.3 1016.8 5.9 N 7.4 N 0.0 0.1
02:40 22.4 20.3 58.7 1016.8 5.9 N 7.4 N 0.0 0.1
02:45 22.4 20.5 58.0 1016.8 6.3 N 8.1 NNW 0.0 0.1
02:50 22.2 20.6 59.2 1016.7 8.5 NNW 11.3 NNW 0.0 0.1
02:55 22.2 20.6 62.1 1016.7 9.2 NNW 13.1 NNW 0.0 0.1
03:00 22.4 20.7 64.3 1016.8 8.8 NNW 11.6 NW 0.0 0.1
03:05 22.5 20.8 63.9 1016.7 7.8 NW 11.3 NNW 0.0 0.1
03:10 22.5 20.9 65.8 1016.7 7.5 NW 12.7 NW 0.0 0.1
03:15 22.7 21.0 68.3 1016.7 8.4 NW 12.0 WNW 0.0 0.1
03:20 22.8 21.1 67.6 1016.7 7.8 NNW 13.8 NNW 0.0 0.1
03:25 22.9 21.3 65.3 1016.7 8.9 NNW 14.1 NW 0.0 0.1
03:30 23.0 21.5 64.0 1016.7 5.0 NW 8.5 NW 0.0 0.1
03:35 22.9 21.4 62.9 1016.7 4.8 NW 8.5 NNW 0.0 0.1
03:40 22.7 21.3 63.2 1016.7 4.9 WNW 9.2 WNW 0.0 0.1
03:45 22.5 21.0 63.4 1016.7 3.3 NW 7.1 NNW 0.0 0.1
03:50 22.4 20.6 62.4 1016.8 2.7 NNW 6.4 WNW 0.0 0.1
03:55 22.4 20.3 62.6 1016.8 1.9 NE 7.8 NE 0.0 0.1
04:00 22.3 20.2 62.9 1016.8 2.0 NE 6.7 NNW 0.0 0.1
04:05 22.1 20.1 62.7 1016.7 0.5 ESE 2.5 ESE 0.0 0.1
04:10 22.1 20.0 62.4 1016.7 0.5 SW 2.5 WNW 0.0 0.1
04:15 21.9 19.7 62.5 1016.7 0.1 SSE 2.1 SE 0.0 0.1
04:20 21.8 19.5 63.2 1016.8 0.7 SE 2.5 SE 0.0 0.1
04:25 21.6 19.3 64.3 1016.8 0.4 N 1.8 SSW 0.0 0.1
04:30 21.5 19.2 64.5 1016.9 0.3 NW 2.5 NW 0.0 0.1
04:35 21.3 19.0 64.8 1016.9 2.5 NW 4.9 NW 0.0 0.1
04:40 21.3 18.9 64.4 1016.9 4.6 NNW 8.5 N 0.0 0.1
04:45 21.8 19.2 63.4 1016.9 8.3 N 13.8 N 0.0 0.1
04:50 22.4 19.9 62.1 1017.0 7.1 N 10.6 N 0.0 0.2
04:55 22.4 20.5 61.2 1017.0 3.3 N 6.7 NNW 0.0 0.3
05:00 22.2 20.7 61.9 1017.0 2.7 N 4.9 NE 0.0 0.7
05:05 22.3 20.5 61.7 1017.0 3.2 NNE 6.0 N 0.0 1.5
05:10 22.4 20.3 61.3 1017.0 2.4 NE 3.9 NNE 0.0 2.6
05:15 22.1 20.1 61.9 1017.1 3.5 NNE 5.3 NNE 0.0 4.3
05:20 22.3 20.1 61.5 1017.1 2.4 NNE 3.5 NNE 0.0 6.6
05:25 22.4 20.3 60.7 1017.2 4.1 NNE 6.0 NNE 0.0 9.2
05:30 22.5 20.5 60.0 1017.2 3.6 NNE 5.3 NE 0.0 11.7
05:35 22.6 20.5 58.8 1017.2 3.6 NNE 6.0 NNE 0.0 14.2
05:40 22.7 20.4 57.9 1017.3 4.7 NNE 5.6 NNE 0.0 16.8
05:45 22.6 20.4 58.5 1017.3 4.6 NNE 5.6 N 0.0 19.2
05:50 22.6 20.5 58.5 1017.4 3.5 N 4.9 N 0.0 21.7
05:55 22.5 20.6 58.8 1017.4 1.9 NNW 3.9 NW 0.0 23.9
06:00 22.5 20.6 59.1 1017.5 2.4 NE 4.9 ESE 0.0 71.6
06:05 22.6 21.0 59.6 1017.6 4.1 ESE 5.6 ESE 0.0 103.3
06:10 22.9 22.1 58.8 1017.7 2.8 ESE 5.3 ESE 0.0 116.8
06:15 23.2 23.4 57.9 1017.7 1.3 SE 3.2 SE 0.0 130.1
06:20 23.3 24.8 57.8 1017.8 0.0 NNE 0.0 SE 0.0 143.5
06:25 23.5 26.1 57.2 1017.9 0.1 ESE 1.4 ESE 0.0 157.1
06:30 24.0 27.2 56.7 1018.0 0.1 SE 1.4 SE 0.0 170.6
06:35 24.2 28.2 57.2 1018.1 0.1 SE 1.8 SE 0.0 184.2
06:40 24.3 29.1 56.7 1018.1 0.3 ESE 2.1 E 0.0 197.7
06:45 25.0 29.8 54.9 1018.2 0.1 ESE 1.4 ESE 0.0 210.8
06:50 25.4 30.5 52.8 1018.2 0.1 SE 1.8 SE 0.0 224.3
06:55 25.6 31.2 52.3 1018.2 0.5 ESE 2.5 E 0.0 238.5
07:00 25.9 31.6 50.1 1018.2 0.1 ENE 1.8 ENE 0.0 251.9
07:05 25.8 31.9 51.0 1018.3 1.4 SSE 4.6 SE 0.0 265.5
07:10 26.2 32.1 50.4 1018.4 4.0 SSE 5.6 SE 0.0 278.9
07:15 26.4 32.4 49.9 1018.4 2.9 ESE 6.0 ESE 0.0 292.6
07:20 26.6 32.8 49.9 1018.4 3.2 SE 6.0 SSE 0.0 306.5
07:25 26.7 33.3 49.9 1018.4 5.3 SSE 7.8 SSE 0.0 320.1
07:30 26.7 33.8 50.8 1018.4 4.1 S 7.1 SSE 0.0 333.0
07:35 26.7 34.1 52.1 1018.4 5.1 SSE 9.9 S 0.0 345.7
07:40 26.7 34.3 53.1 1018.5 4.8 S 9.2 SE 0.0 359.0
07:45 27.0 34.4 53.2 1018.5 4.2 SE 7.8 ESE 0.0 371.9
07:50 27.1 34.7 53.2 1018.5 4.6 SSE 8.5 SSE 0.0 384.5
07:55 27.1 34.9 54.5 1018.6 5.0 SE 8.5 SSE 0.0 397.5
08:00 27.2 35.1 55.2 1018.6 3.6 SSE 8.5 SE 0.0 410.5
08:05 27.4 35.4 55.2 1018.7 4.8 SE 9.5 S 0.0 420.8
08:10 27.6 35.7 54.9 1018.8 5.2 SE 11.6 S 0.0 433.5
08:15 27.3 35.7 55.2 1018.9 6.9 S 11.6 SSE 0.0 446.1
08:20 27.3 35.6 55.5 1018.9 6.3 SSE 9.9 S 0.0 458.5
08:25 27.4 35.6 55.8 1018.9 3.9 ESE 7.1 E 0.0 470.9
08:30 27.5 35.8 56.3 1018.9 6.2 S 12.0 SE 0.0 482.6
08:35 27.4 36.0 56.8 1019.0 5.4 SSE 11.6 SE 0.0 494.9
08:40 27.5 36.2 56.8 1019.0 7.1 S 11.6 S 0.0 506.4
08:45 27.5 36.4 58.8 1019.1 6.6 S 13.1 SE 0.0 485.3
08:50 27.6 36.5 59.5 1019.1 7.2 SSE 12.7 SE 0.0 528.7
08:55 27.6 36.5 59.8 1019.1 7.0 S 12.4 S 0.0 539.9
09:00 27.6 36.5 59.2 1019.1 9.1 S 15.2 SSW 0.0 551.5
09:05 27.7 36.4 59.5 1019.2 7.6 SSE 13.8 SSE 0.0 562.6
09:10 27.8 36.6 59.8 1019.2 8.1 SE 15.9 ESE 0.0 572.5
09:15 27.7 36.8 59.9 1019.2 9.5 SSE 16.6 SE 0.0 583.5
09:20 27.7 37.1 61.3 1019.2 11.4 SE 16.9 SE 0.0 593.6
09:25 27.8 37.0 62.5 1019.2 10.3 SE 15.2 ESE 0.0 601.7
09:30 27.8 37.0 62.7 1019.3 8.6 SSE 13.1 SSE 0.0 611.6
09:35 27.8 37.2 62.8 1019.3 8.8 S 14.8 SSW 0.0 620.6
09:40 27.7 37.3 63.8 1019.3 8.2 S 13.8 SSE 0.0 629.3
09:45 27.8 37.6 63.9 1019.3 7.5 SSE 14.5 SSE 0.0 638.1
09:50 27.9 38.1 64.0 1019.3 9.3 SE 15.9 SSE 0.0 645.5
09:55 28.0 38.4 64.5 1019.3 9.6 SSE 16.6 SSE 0.0 653.0
10:00 28.1 38.6 64.2 1019.4 8.7 SSE 13.8 S 0.0 660.1
10:05 28.2 38.9 61.9 1019.3 8.1 SSE 13.1 SSE 0.0 667.3
10:10 28.0 39.1 62.8 1019.2 7.5 SSW 13.4 S 0.0 673.1
10:15 28.1 38.9 64.3 1019.2 9.5 SE 14.5 S 0.0 679.6
10:20 28.3 38.9 64.5 1019.3 9.8 SSE 16.2 SE 0.0 686.1
10:25 28.2 39.1 64.1 1019.3 10.8 SSE 16.2 SSE 0.0 691.9
10:30 28.3 39.2 62.7 1019.2 8.6 S 14.1 SSE 0.0 697.3
10:35 28.4 39.4 63.4 1019.2 7.9 SE 14.8 SE 0.0 702.5
10:40 28.6 39.7 61.9 1019.2 9.7 SSE 17.3 SSE 0.0 706.8
10:45 28.6 39.7 62.4 1019.2 10.1 SE 18.0 SE 0.0 711.3
10:50 28.4 39.4 61.5 1019.2 9.3 SSE 15.9 SE 0.0 715.9
10:55 28.4 39.3 62.0 1019.1 11.3 SSE 19.4 ESE 0.0 719.3
11:00 28.4 39.4 61.7 1019.2 10.6 SE 18.7 SSE 0.0 721.9
11:05 28.4 39.4 61.9 1019.2 9.7 SE 18.4 SSE 0.0 724.2
11:10 28.4 39.4 60.3 1019.2 11.8 SE 19.4 SE 0.0 728.9
11:15 28.4 39.3 59.4 1019.1 11.3 SE 20.1 SSE 0.0 731.0
11:20 28.5 39.3 59.2 1019.1 12.6 SE 19.1 SSE 0.0 733.5
11:25 28.7 39.3 58.3 1019.1 11.8 SE 18.4 SE 0.0 735.0
11:30 28.6 39.2 60.1 1019.2 10.5 SSE 17.6 SE 0.0 737.7
11:35 28.9 39.5 58.2 1019.1 9.7 S 17.3 SSW 0.0 739.1
11:40 28.9 39.7 58.5 1019.1 10.4 SSE 17.3 SSE 0.0 740.9
11:45 29.3 40.0 59.3 1019.1 11.5 SSE 20.5 S 0.0 742.9
11:50 28.6 40.0 62.7 1019.2 12.4 SE 21.2 SSE 0.0 748.8
11:55 28.4 39.8 65.1 1019.1 12.3 SE 19.1 SE 0.0 749.5
12:00 28.3 39.7 67.3 1019.0 11.9 SSE 20.8 ESE 0.0 733.1
12:05 27.9 38.8 67.7 1019.0 10.4 SSE 19.4 SSE 0.0 209.5
12:10 27.4 36.7 70.2 1019.0 11.5 SSE 23.3 SE 0.0 582.7
12:15 27.5 36.2 70.0 1019.0 11.2 S 20.1 S 0.0 383.6
12:20 27.5 36.0 69.9 1018.9 13.5 SE 19.8 SE 0.0 769.6
12:25 27.8 36.9 67.1 1018.9 12.5 S 20.1 SSW 0.0 798.8
12:30 28.1 37.9 63.5 1019.0 12.5 SSE 20.1 SSE 0.0 681.4
12:35 28.2 38.6 63.3 1018.9 13.1 SSE 21.2 SE 0.0 728.3
12:40 28.4 39.1 63.3 1018.8 9.8 S 23.3 S 0.0 723.5
12:45 28.5 39.5 62.7 1018.8 10.9 SSE 19.8 SSE 0.0 721.4
12:50 28.5 39.8 62.6 1018.9 11.1 S 18.4 SSW 0.0 720.5
12:55 28.2 39.7 63.0 1018.9 12.8 SSE 21.5 SSW 0.0 718.7
13:00 28.0 39.6 64.8 1018.7 10.5 S 18.7 SSE 0.0 729.6
13:05 28.2 39.9 62.8 1018.7 11.5 SSW 19.1 S 0.0 711.1
13:10 28.7 39.9 60.2 1018.7 9.0 S 17.6 SSE 0.0 699.4
13:15 28.8 40.0 60.7 1018.7 9.7 SSE 21.9 SE 0.0 688.0
13:20 28.7 40.1 61.8 1018.6 13.1 S 21.5 S 0.0 685.4
13:25 28.5 39.8 62.7 1018.6 13.7 SSE 24.3 SSE 0.0 680.9
13:30 28.4 39.4 62.4 1018.7 12.2 S 21.5 SSW 0.0 667.8
13:35 28.5 39.0 62.6 1018.7 12.7 S 21.9 SW 0.0 660.8
13:40 28.7 38.8 61.0 1018.6 10.3 SSW 24.7 SSE 0.0 650.2
13:45 28.8 38.8 61.0 1018.6 14.0 S 27.9 SSE 0.0 645.7
13:50 28.4 38.5 61.2 1018.7 13.8 SSW 23.6 S 0.0 635.0
13:55 28.2 37.9 61.9 1018.7 13.5 S 24.3 SSW 0.0 626.8
14:00 28.2 37.5 61.1 1018.6 12.4 SSW 21.5 SSW 0.0 617.1
14:05 28.8 37.3 59.4 1018.6 10.6 SSW 19.4 SSE 0.0 608.2
14:10 28.9 37.5 60.1 1018.7 13.3 S 22.9 S 0.0 568.5
14:15 29.0 37.5 60.2 1018.7 12.1 S 24.7 S 0.0 589.7
14:20 28.5 37.1 61.8 1018.6 15.1 SSE 24.3 S 0.0 581.0
14:25 28.1 36.3 61.7 1018.6 14.9 S 24.3 SSE 0.0 572.3
14:30 28.0 35.3 61.6 1018.7 13.3 S 24.3 SSE 0.0 563.5
14:35 28.0 34.5 62.4 1018.6 13.6 S 27.2 S 0.0 551.6
14:40 28.1 34.0 62.8 1018.5 11.9 S 25.1 S 0.0 541.7
14:45 28.3 33.9 62.9 1018.5 11.5 S 20.8 SSE 0.0 529.0
14:50 28.3 33.7 61.7 1018.6 13.5 SW 21.9 SW 0.0 520.0
14:55 28.4 33.1 61.5 1018.6 11.6 S 23.3 S 0.0 507.1
15:00 28.3 32.4 60.9 1018.6 13.8 SW 24.7 SW 0.0 496.7
15:05 28.2 31.7 62.5 1018.5 12.0 SSW 21.9 S 0.0 487.5
15:10 28.4 31.2 62.1 1018.6 10.3 SW 24.7 S 0.0 476.3
15:15 28.0 30.7 62.2 1018.7 11.7 SSW 21.5 SW 0.0 462.7
15:20 28.1 30.3 62.4 1018.7 10.2 SSW 19.1 SSW 0.0 448.0
15:25 28.0 30.0 63.1 1018.6 11.2 S 23.6 S 0.0 435.8
15:30 27.9 29.8 62.3 1018.7 12.2 SSW 21.9 SW 0.0 422.1
15:35 27.8 29.6 63.2 1018.7 10.6 SSW 19.1 SW 0.0 409.7
15:40 27.7 29.4 64.0 1018.7 15.1 SSW 22.6 SW 0.0 385.2
15:45 27.4 29.2 65.1 1018.6 13.6 S 23.3 SSW 0.0 376.0
15:50 27.4 29.0 65.5 1018.6 13.0 S 25.1 SSW 0.0 362.2
15:55 27.5 28.9 65.6 1018.5 8.8 S 17.6 S 0.0 357.0
16:00 27.5 28.8 64.9 1018.5 13.7 SSW 26.1 S 0.0 343.3
16:05 27.4 28.7 65.1 1018.6 12.9 SSW 22.9 SSW 0.0 320.1
16:10 27.2 28.5 65.7 1018.6 13.3 SW 21.2 SW 0.0 319.5
16:15 27.3 28.4 66.4 1018.5 12.4 S 22.2 SSW 0.0 307.3
16:20 27.2 28.3 67.7 1018.5 10.0 S 21.2 SSE 0.0 294.1
16:25 27.2 28.3 67.4 1018.5 11.9 S 22.9 S 0.0 278.0
16:30 27.1 28.3 67.9 1018.6 11.0 S 17.6 SSE 0.0 264.2
16:35 26.9 28.3 69.5 1018.5 12.5 S 22.2 SSW 0.0 250.1
16:40 26.8 28.2 68.8 1018.5 11.7 SSW 20.5 SSW 0.0 238.9
16:45 26.8 28.2 69.0 1018.5 10.1 S 16.6 S 0.0 224.5
16:50 26.6 28.5 70.5 1018.5 10.7 S 19.4 SSE 0.0 212.7
16:55 26.6 29.1 70.9 1018.4 8.7 SSW 13.4 SSW 0.0 199.3
17:00 26.6 29.4 71.4 1018.4 6.7 SSW 18.7 S 0.0 182.4
17:05 26.6 29.3 70.9 1018.4 11.0 S 16.9 SSE 0.0 169.0
17:10 26.4 29.3 71.1 1018.4 8.8 SSW 14.1 SSE 0.0 156.8
17:15 26.3 29.2 71.5 1018.4 9.5 SSE 15.5 SE 0.0 143.9
17:20 26.1 29.0 72.4 1018.3 8.3 S 13.1 SSW 0.0 133.5
17:25 26.1 28.7 72.4 1018.3 9.6 S 17.3 S 0.0 120.5
17:30 26.0 28.3 72.9 1018.3 7.8 S 14.1 SSE 0.0 104.9
17:35 25.9 27.8 73.1 1018.3 9.1 SSE 15.5 SSE 0.0 56.9
17:40 25.7 27.1 73.7 1018.3 9.0 S 16.2 SE 0.0 29.3
17:45 25.6 26.6 73.6 1018.3 7.5 SSE 12.4 SSE 0.0 26.4
17:50 25.6 26.1 74.0 1018.3 8.8 SSE 15.9 S 0.0 23.8
17:55 25.5 25.8 74.7 1018.3 6.5 SSE 14.1 SSE 0.0 23.1
18:00 25.4 25.5 74.7 1018.3 8.7 S 13.8 S 0.0 21.0
18:05 25.3 25.4 75.6 1018.3 4.8 SSE 8.8 SSE 0.0 21.4
Màxima 29.3 40.1 75.6 1019.4 15.1 SSW 27.9 SSE 0.0 798.8
Mínima 20 18.9 49.9 1016.4
Total 0.0